Time;durP1;ratioP1;P1;durP2;ratioP2;P2;SDS_P1;SDS_P2;PMS_P1;PMS_P2;Temp;Humidity;BMP_temperature;BMP_pressure;BME280_temperature;BME280_humidity;BME280_pressure;Samples;Min_cycle;Max_cycle;Signal;HPM_P1;HPM_P2
2023/10/10 00:01:43;;;;;;;13.82;6.20;;;;;;;16.07;44.65;94923.84;4191755;28;20090;-70
2023/10/10 00:03:45;;;;;;;11.43;5.60;;;;;;;15.79;45.18;94919.25;4209000;28;20067;-70
2023/10/10 00:05:47;;;;;;;13.13;5.97;;;;;;;15.50;45.97;94926.16;4190429;28;20056;-71
2023/10/10 00:07:50;;;;;;;13.33;6.20;;;;;;;15.50;45.71;94915.63;4163918;28;20076;-70
2023/10/10 00:09:52;;;;;;;12.18;5.80;;;;;;;15.60;45.99;94906.59;4196495;28;20743;-71
2023/10/10 00:11:57;;;;;;;13.90;6.10;;;;;;;15.67;45.88;94904.84;4208354;28;20055;-71
2023/10/10 00:14:05;;;;;;;11.35;5.85;;;;;;;15.76;45.56;94901.94;4207822;28;20090;-68
2023/10/10 00:16:08;;;;;;;9.93;5.30;;;;;;;15.86;45.20;94904.28;4208630;28;20147;-69
2023/10/10 00:18:11;;;;;;;19.58;6.72;;;;;;;15.83;45.00;94896.75;4207775;28;20528;-68
2023/10/10 00:20:16;;;;;;;11.93;6.07;;;;;;;15.87;44.86;94903.28;4204521;28;20044;-71
2023/10/10 00:22:26;;;;;;;12.52;6.50;;;;;;;15.91;45.06;94901.91;4209163;28;20043;-71
2023/10/10 00:24:32;;;;;;;12.82;6.15;;;;;;;15.84;44.93;94898.38;4212016;28;20725;-71
2023/10/10 00:26:34;;;;;;;13.35;6.25;;;;;;;15.73;44.61;94893.59;4210474;28;20159;-69
2023/10/10 00:28:36;;;;;;;24.80;7.22;;;;;;;15.58;44.69;94896.22;4211624;28;20048;-71
2023/10/10 00:30:43;;;;;;;17.75;6.32;;;;;;;15.57;45.15;94895.41;4212555;28;20479;-69
2023/10/10 00:32:46;;;;;;;11.88;5.95;;;;;;;15.61;45.53;94889.75;4210083;28;20048;-71
2023/10/10 00:34:50;;;;;;;14.35;6.60;;;;;;;15.72;45.38;94887.50;4190839;28;20063;-70
2023/10/10 00:36:52;;;;;;;10.57;6.28;;;;;;;15.81;45.31;94884.72;4211687;28;20534;-70
2023/10/10 00:39:06;;;;;;;15.02;6.47;;;;;;;15.88;45.20;94897.00;4211740;28;20079;-69
2023/10/10 00:41:10;;;;;;;;;;;;;;;15.69;45.30;94887.81;4193669;28;20055;-69
2023/10/10 00:43:15;;;;;;;13.95;6.43;;;;;;;15.37;45.48;94896.97;4202357;28;19983;-72
2023/10/10 00:45:21;;;;;;;13.98;6.90;;;;;;;15.28;45.89;94895.44;4211186;28;20052;-71
2023/10/10 00:47:25;;;;;;;12.40;6.30;;;;;;;15.31;45.95;94895.06;4194066;28;20072;-70
2023/10/10 00:49:31;;;;;;;13.40;6.15;;;;;;;15.38;46.12;94896.00;4206993;28;20492;-68
2023/10/10 00:51:33;;;;;;;14.93;6.28;;;;;;;15.42;46.32;94891.13;4199235;28;20126;-69
2023/10/10 00:53:37;;;;;;;13.10;6.50;;;;;;;15.41;46.41;94892.97;4205435;28;20104;-70
2023/10/10 00:55:40;;;;;;;13.30;6.00;;;;;;;15.42;46.32;94894.59;4182649;28;20076;-70
2023/10/10 00:57:43;;;;;;;12.05;6.03;;;;;;;15.32;46.27;94894.88;4192987;28;20109;-69
2023/10/10 00:59:46;;;;;;;14.45;6.63;;;;;;;15.39;46.21;94892.31;4210947;28;20059;-71
2023/10/10 01:01:49;;;;;;;15.15;5.78;;;;;;;15.49;46.43;94892.06;4211729;28;20051;-67
2023/10/10 01:03:51;;;;;;;12.30;5.47;;;;;;;15.61;46.92;94887.09;4211492;28;20084;-67
2023/10/10 01:05:54;;;;;;;14.80;5.05;;;;;;;15.71;47.38;94891.13;4171231;28;20601;-70
2023/10/10 01:07:59;;;;;;;18.33;5.75;;;;;;;15.92;47.34;94885.06;4181919;28;20054;-71
2023/10/10 01:10:11;;;;;;;9.15;4.03;;;;;;;16.15;47.58;94878.75;4177934;28;20131;-71
2023/10/10 01:12:13;;;;;;;13.77;3.97;;;;;;;16.37;46.88;94875.13;4178110;28;20449;-73
2023/10/10 01:14:18;;;;;;;13.38;4.07;;;;;;;16.60;46.96;94882.00;4185233;28;20190;-68
2023/10/10 01:16:27;;;;;;;14.02;4.22;;;;;;;16.85;46.76;94871.03;4193541;28;20064;-71
2023/10/10 01:18:31;;;;;;;10.77;3.55;;;;;;;16.99;46.40;94868.28;4193247;28;20121;-69
2023/10/10 01:20:36;;;;;;;15.18;3.90;;;;;;;17.19;46.15;94863.09;4209657;28;20063;-70
2023/10/10 01:22:40;;;;;;;12.65;3.85;;;;;;;17.33;45.84;94869.25;4177504;28;20233;-69
2023/10/10 01:24:42;;;;;;;10.73;3.42;;;;;;;17.47;45.47;94875.44;4211079;28;20071;-69
2023/10/10 01:26:45;;;;;;;8.63;3.70;;;;;;;17.56;45.20;94882.19;4211190;28;20055;-70
2023/10/10 01:28:47;;;;;;;7.28;3.40;;;;;;;17.64;45.11;94881.22;4210362;28;20048;-71
2023/10/10 01:32:55;;;;;;;11.10;3.78;;;;;;;17.71;44.82;94890.00;4209970;28;20460;-70
2023/10/10 01:34:57;;;;;;;13.07;3.25;;;;;;;17.72;44.78;94883.66;4209598;28;20056;-70
2023/10/10 01:37:14;;;;;;;10.23;3.58;;;;;;;17.77;44.54;94880.44;4201521;28;20056;-72
2023/10/10 01:39:23;;;;;;;12.35;3.33;;;;;;;17.84;44.44;94881.31;4197962;28;20480;-71
2023/10/10 01:41:38;;;;;;;10.68;3.40;;;;;;;17.88;44.35;94887.84;4191993;28;20123;-71
2023/10/10 01:43:53;;;;;;;17.20;4.20;;;;;;;17.83;44.69;94900.84;4207675;28;20098;-71
2023/10/10 01:46:18;;;;;;;10.52;3.50;;;;;;;17.77;44.68;94901.66;4189388;28;20052;-69
2023/10/10 01:48:23;;;;;;;9.88;3.47;;;;;;;17.76;44.26;94892.03;4208622;28;20082;-71
2023/10/10 01:50:31;;;;;;;14.23;3.53;;;;;;;17.80;44.53;94895.94;4204247;28;20048;-69
2023/10/10 01:52:45;;;;;;;8.40;3.47;;;;;;;17.83;44.64;94894.75;4208017;28;20519;-74
2023/10/10 01:54:52;;;;;;;9.18;3.47;;;;;;;17.89;43.97;94908.00;4174841;28;20503;-69
2023/10/10 01:56:56;;;;;;;14.48;3.63;;;;;;;17.82;43.92;94899.22;4207758;28;20057;-72
2023/10/10 01:59:02;;;;;;;12.45;3.78;;;;;;;17.83;44.16;94892.09;4175991;28;20052;-70
2023/10/10 02:01:16;;;;;;;15.80;4.10;;;;;;;17.84;44.03;94901.69;4174414;28;20057;-69
2023/10/10 02:03:21;;;;;;;9.93;3.35;;;;;;;17.77;44.49;94896.34;4203433;28;20433;-69
2023/10/10 02:07:39;;;;;;;11.65;3.35;;;;;;;17.80;44.59;94906.53;4178666;28;20065;-70
2023/10/10 02:09:43;;;;;;;6.15;2.83;;;;;;;17.55;44.93;94924.75;4187856;28;20532;-72
2023/10/10 02:11:54;;;;;;;13.02;3.55;;;;;;;17.12;45.05;94930.22;4204511;28;20060;-70
2023/10/10 02:13:58;;;;;;;11.60;3.45;;;;;;;16.87;45.15;94935.97;4209847;28;20404;-69
2023/10/10 02:16:04;;;;;;;14.98;3.55;;;;;;;16.98;44.70;94931.97;4192067;28;20114;-71
2023/10/10 02:18:12;;;;;;;9.93;3.47;;;;;;;16.97;44.47;94930.31;4210907;28;20135;-70
2023/10/10 02:22:47;;;;;;;;;;;;;;;17.06;44.47;94920.44;4194356;28;20048;-69
2023/10/10 02:24:51;;;;;;;6.30;2.90;;;;;;;17.02;44.24;94930.56;4203672;28;19923;-69
2023/10/10 02:26:54;;;;;;;12.38;3.65;;;;;;;17.05;44.13;94918.78;4210273;28;20422;-70
2023/10/10 02:31:19;;;;;;;11.35;3.50;;;;;;;17.13;43.96;94908.84;4200699;28;20056;-72
2023/10/10 02:35:27;;;;;;;9.98;3.08;;;;;;;17.16;44.69;94910.28;4191790;28;20101;-71
2023/10/10 02:39:40;;;;;;;10.38;3.03;;;;;;;17.22;44.80;94909.53;4209304;28;20060;-70
2023/10/10 02:41:48;;;;;;;6.72;3.28;;;;;;;17.26;45.43;94907.31;4209739;28;20523;-72
2023/10/10 02:46:05;;;;;;;9.73;3.83;;;;;;;17.27;46.08;94896.53;4200535;28;20505;-71
2023/10/10 02:48:07;;;;;;;8.20;3.08;;;;;;;17.29;46.39;94898.97;4210460;28;20515;-68
2023/10/10 02:50:10;;;;;;;11.02;3.58;;;;;;;17.30;46.56;94903.25;4209320;28;20040;-68
2023/10/10 02:52:14;;;;;;;10.60;3.60;;;;;;;17.32;47.00;94896.75;4209242;28;20060;-69
2023/10/10 02:54:31;;;;;;;;;;;;;;;17.38;47.00;94893.31;4209254;28;20058;-68
2023/10/10 02:56:43;;;;;;;8.07;3.13;;;;;;;17.32;47.20;94890.66;4208698;28;20397;-71
2023/10/10 02:58:54;;;;;;;10.48;3.15;;;;;;;17.32;47.36;94896.75;4197831;28;20147;-71
2023/10/10 03:00:58;;;;;;;9.25;3.30;;;;;;;17.35;47.48;94892.88;4190086;28;20136;-71
2023/10/10 03:03:03;;;;;;;9.57;3.20;;;;;;;17.31;47.86;94908.34;4189158;28;20048;-71
2023/10/10 03:07:08;;;;;;;12.00;2.90;;;;;;;17.32;48.38;94894.09;4193686;28;20076;-71
2023/10/10 03:09:15;;;;;;;8.05;2.88;;;;;;;17.36;47.64;94883.94;4209738;28;20492;-71
2023/10/10 03:11:35;;;;;;;7.07;3.47;;;;;;;17.28;47.50;94900.00;4210051;28;20052;-72
2023/10/10 03:13:42;;;;;;;9.85;3.10;;;;;;;17.26;47.76;94886.94;4194635;28;20047;-71
2023/10/10 03:15:52;;;;;;;9.90;3.10;;;;;;;17.27;47.67;94887.75;4209063;28;20052;-71
2023/10/10 03:20:13;;;;;;;6.50;2.97;;;;;;;17.23;48.35;94894.44;4190332;28;20056;-68
2023/10/10 03:28:49;;;;;;;8.00;2.65;;;;;;;17.26;48.48;94900.19;4185285;28;20052;-71
2023/10/10 03:31:05;;;;;;;12.93;3.60;;;;;;;17.23;48.66;94907.69;4200988;28;20138;-71
2023/10/10 03:33:16;;;;;;;8.30;3.15;;;;;;;17.18;48.96;94922.31;4202107;28;20135;-70
2023/10/10 03:35:33;;;;;;;8.75;3.25;;;;;;;17.16;48.45;94916.44;4190920;28;20566;-71
2023/10/10 03:37:53;;;;;;;12.27;3.35;;;;;;;17.20;48.49;94919.50;4206372;28;20079;-70
2023/10/10 03:40:20;;;;;;;10.93;3.67;;;;;;;17.20;48.41;94920.28;4176864;28;20053;-70
2023/10/10 05:24:00;;;;;;;10.93;3.80;;;;;;;17.23;52.55;94995.06;4204996;28;20070;-73
2023/10/10 05:26:02;;;;;;;;;;;;;;;17.19;52.56;94999.94;4202691;28;20169;-73
2023/10/10 05:28:09;;;;;;;10.77;3.92;;;;;;;17.17;52.83;95008.06;4186646;28;19921;-73
2023/10/10 05:30:23;;;;;;;10.77;4.13;;;;;;;17.11;52.94;95010.66;4185244;28;20074;-72
2023/10/10 05:32:30;;;;;;;10.13;3.83;;;;;;;17.17;52.79;95005.41;4211208;28;20197;-71
2023/10/10 05:34:34;;;;;;;8.73;3.95;;;;;;;17.23;52.63;95010.94;4192880;28;20048;-73
2023/10/10 05:36:37;;;;;;;10.90;3.80;;;;;;;17.25;52.50;95008.91;4210757;28;20060;-72
2023/10/10 05:38:40;;;;;;;;;;;;;;;17.24;52.50;95002.81;4193265;28;20105;-72
2023/10/10 05:40:43;;;;;;;13.73;3.70;;;;;;;17.25;52.24;95022.16;4191560;28;20285;-72
2023/10/10 05:42:57;;;;;;;8.48;4.75;;;;;;;17.23;52.22;95009.13;4199980;28;20060;-74
2023/10/10 05:44:59;;;;;;;;;;;;;;;17.23;52.40;95006.47;4211429;28;20134;-73
2023/10/10 05:47:02;;;;;;;12.10;4.25;;;;;;;17.27;52.13;95004.25;4208335;28;20015;-72
2023/10/10 05:49:05;;;;;;;9.23;3.90;;;;;;;17.29;52.45;95020.75;4207151;28;20062;-73
2023/10/10 05:51:10;;;;;;;10.73;4.07;;;;;;;17.34;52.13;95013.06;4209168;28;20051;-74
2023/10/10 05:53:12;;;;;;;10.52;4.43;;;;;;;17.40;52.15;95014.94;4184543;28;20056;-73
2023/10/10 05:55:15;;;;;;;9.73;4.15;;;;;;;17.38;52.17;95014.31;4192138;28;20160;-70
2023/10/10 05:57:18;;;;;;;11.95;3.58;;;;;;;17.35;52.22;95006.75;4214084;28;20164;-74
2023/10/10 05:59:20;;;;;;;8.40;3.50;;;;;;;17.42;52.29;95020.03;4203809;28;20074;-72
2023/10/10 06:01:23;;;;;;;10.95;3.78;;;;;;;17.49;52.05;95015.63;4192787;28;20447;-72
2023/10/10 06:03:26;;;;;;;;;;;;;;;17.37;52.34;95020.63;4193315;28;20052;-73
2023/10/10 06:05:29;;;;;;;14.05;4.07;;;;;;;17.42;52.35;95018.19;4185693;28;20322;-72
2023/10/10 06:07:33;;;;;;;13.70;4.00;;;;;;;17.53;52.04;95017.69;4209601;28;20051;-73
2023/10/10 06:09:39;;;;;;;10.60;3.63;;;;;;;17.52;52.22;95021.31;4189855;28;20059;-74
2023/10/10 06:11:42;;;;;;;10.82;4.13;;;;;;;17.43;52.27;95011.09;4206808;28;20579;-73
2023/10/10 06:13:46;;;;;;;8.52;3.78;;;;;;;17.44;52.40;95016.19;4210425;28;20522;-72
2023/10/10 06:15:50;;;;;;;12.48;4.32;;;;;;;17.44;52.33;95007.41;4193000;28;20083;-71
2023/10/10 06:17:57;;;;;;;12.00;3.95;;;;;;;17.34;52.79;95013.06;4208608;28;20541;-71
2023/10/10 06:20:10;;;;;;;10.68;3.97;;;;;;;17.36;52.49;95014.50;4191628;28;20059;-71
2023/10/10 06:22:15;;;;;;;11.32;4.13;;;;;;;17.40;52.53;95006.97;4185641;28;20049;-74
2023/10/10 06:24:17;;;;;;;10.40;3.60;;;;;;;17.31;52.54;95014.25;4209055;28;20051;-72
2023/10/10 06:26:21;;;;;;;13.02;3.72;;;;;;;17.42;52.49;95002.31;4207217;28;20041;-73
2023/10/10 06:28:34;;;;;;;14.13;3.75;;;;;;;17.49;52.47;95016.44;4209741;28;20056;-74
2023/10/10 06:30:37;;;;;;;10.07;3.97;;;;;;;17.46;52.34;95016.81;4173773;28;20065;-73
2023/10/10 06:32:40;;;;;;;8.98;3.78;;;;;;;17.47;52.45;95020.28;4207272;28;20068;-72
2023/10/10 06:34:48;;;;;;;10.52;3.38;;;;;;;17.48;52.13;95009.47;4207988;28;20090;-73
2023/10/10 06:36:54;;;;;;;7.55;4.15;;;;;;;17.59;52.06;95006.31;4203056;28;20131;-71
2023/10/10 06:41:17;;;;;;;8.25;4.35;;;;;;;17.71;51.77;95013.72;4205351;28;20056;-73
2023/10/10 06:43:20;;;;;;;12.32;4.32;;;;;;;17.92;51.15;95020.78;4206937;28;20048;-73
2023/10/10 06:45:34;;;;;;;16.58;4.68;;;;;;;18.01;50.91;95014.28;4173764;28;20131;-73
2023/10/10 06:47:43;;;;;;;15.13;4.80;;;;;;;18.05;50.82;95015.53;4193267;28;20143;-73
2023/10/10 06:49:55;;;;;;;12.07;4.40;;;;;;;17.97;51.11;95027.13;4192577;28;20130;-74
2023/10/10 06:52:00;;;;;;;17.58;5.43;;;;;;;17.91;51.02;95021.78;4208268;28;20482;-71
2023/10/10 06:54:03;;;;;;;12.07;4.20;;;;;;;17.89;50.88;95032.56;4190945;28;20060;-71
2023/10/10 06:56:43;;;;;;;10.43;4.00;;;;;;;17.84;51.39;95029.72;4209235;28;20052;-73
2023/10/10 06:58:46;;;;;;;10.60;3.95;;;;;;;17.84;51.41;95032.34;4182989;28;20134;-73
2023/10/10 07:00:53;;;;;;;7.35;3.50;;;;;;;17.83;51.45;95033.34;4205293;28;20394;-73
2023/10/10 07:02:59;;;;;;;10.05;3.75;;;;;;;17.96;51.36;95028.16;4186397;28;20048;-72
2023/10/10 07:05:05;;;;;;;8.77;3.70;;;;;;;18.09;51.08;95026.53;4207662;28;20547;-74
2023/10/10 07:07:13;;;;;;;8.30;3.78;;;;;;;18.27;50.81;95037.44;4192571;28;20102;-71
2023/10/10 07:09:27;;;;;;;8.82;3.67;;;;;;;18.44;50.57;95039.75;4208545;28;20085;-75
2023/10/10 07:11:29;;;;;;;11.85;3.78;;;;;;;18.58;50.28;95047.56;4197686;28;20051;-73
2023/10/10 07:13:31;;;;;;;8.82;3.47;;;;;;;18.67;49.69;95044.69;4191183;28;20060;-72
2023/10/10 07:15:34;;;;;;;9.73;3.72;;;;;;;18.73;49.87;95050.00;4181634;28;20418;-71
2023/10/10 07:17:38;;;;;;;9.48;3.53;;;;;;;18.76;49.84;95035.56;4207886;28;20052;-71
2023/10/10 07:22:08;;;;;;;9.80;3.80;;;;;;;18.79;49.70;95037.81;4194750;28;20412;-72
2023/10/10 07:24:16;;;;;;;10.13;3.33;;;;;;;18.79;49.69;95037.81;4209787;28;20268;-71
2023/10/10 07:26:20;;;;;;;9.07;4.30;;;;;;;18.76;49.80;95040.84;4209728;28;20060;-74
2023/10/10 07:28:25;;;;;;;14.07;4.55;;;;;;;18.68;50.07;95036.53;4207710;28;20569;-72
2023/10/10 07:30:38;;;;;;;8.85;3.88;;;;;;;18.56;50.44;95035.47;4208158;28;20423;-72
2023/10/10 07:32:48;;;;;;;10.82;4.10;;;;;;;18.45;50.69;95046.69;4187087;28;20441;-73
2023/10/10 07:34:51;;;;;;;10.32;3.97;;;;;;;18.51;51.23;95048.53;4206187;28;20603;-72
2023/10/10 07:36:54;;;;;;;8.85;4.20;;;;;;;18.46;51.08;95051.00;4209120;28;20106;-73
2023/10/10 07:41:30;;;;;;;22.42;5.38;;;;;;;18.49;51.46;95038.13;4201883;28;20086;-74
2023/10/10 07:43:35;;;;;;;11.30;4.15;;;;;;;18.47;51.57;95048.13;4191790;28;20052;-72
2023/10/10 07:45:44;;;;;;;14.32;4.30;;;;;;;18.46;51.47;95058.94;4191452;28;20101;-72
2023/10/10 07:50:08;;;;;;;12.02;4.65;;;;;;;18.38;51.79;95052.78;4206212;28;20056;-70
2023/10/10 07:52:16;;;;;;;19.95;4.72;;;;;;;18.02;52.43;95060.97;4178050;28;20720;-73
2023/10/10 07:54:29;;;;;;;12.73;5.03;;;;;;;18.09;52.51;95045.09;4206471;28;20087;-73
2023/10/10 07:56:31;;;;;;;17.75;5.22;;;;;;;18.38;51.92;95051.97;4209998;28;20072;-74
2023/10/10 07:58:43;;;;;;;10.82;4.45;;;;;;;18.53;51.71;95052.63;4180209;28;20052;-74
2023/10/10 08:01:03;;;;;;;17.83;5.43;;;;;;;18.56;51.31;95054.06;4200198;28;20069;-71
2023/10/10 08:03:12;;;;;;;15.75;5.32;;;;;;;18.74;51.14;95056.16;4203141;28;20044;-74
2023/10/10 08:05:19;;;;;;;20.67;6.22;;;;;;;18.80;50.94;95058.06;4185667;28;20053;-72
2023/10/10 08:07:26;;;;;;;14.25;6.20;;;;;;;18.44;51.61;95058.31;4179952;28;20047;-74
2023/10/10 08:09:29;;;;;;;11.02;4.80;;;;;;;18.54;51.55;95058.75;4206151;28;20387;-74
2023/10/10 08:11:37;;;;;;;;;;;;;;;18.37;51.59;95053.81;4203351;28;20529;-73
2023/10/10 08:13:42;;;;;;;17.40;5.57;;;;;;;18.31;51.85;95059.91;4199885;28;20440;-73
2023/10/10 08:17:58;;;;;;;11.95;4.47;;;;;;;18.09;52.43;95075.13;4205180;28;20157;-73
2023/10/10 08:20:31;;;;;;;20.73;5.75;;;;;;;18.09;52.66;95067.16;4189604;28;20516;-72
2023/10/10 08:22:26;;;;;;;13.52;4.75;;;;;;;18.14;52.61;95055.97;4207564;28;20048;-72
2023/10/10 08:24:29;;;;;;;13.32;4.40;;;;;;;18.04;52.98;95056.31;4209355;28;20161;-73
2023/10/10 08:26:38;;;;;;;20.60;7.13;;;;;;;17.81;53.31;95068.00;4209841;28;20523;-72
2023/10/10 08:28:41;;;;;;;19.45;6.43;;;;;;;17.94;53.36;95059.31;4200762;28;20056;-71
2023/10/10 08:30:43;;;;;;;17.85;6.20;;;;;;;17.98;53.39;95059.72;4208556;28;20500;-72
2023/10/10 08:32:47;;;;;;;12.20;4.68;;;;;;;17.99;52.97;95056.91;4208685;28;20048;-73
2023/10/10 08:34:50;;;;;;;18.67;5.60;;;;;;;18.09;53.14;95058.34;4191051;28;20052;-73
2023/10/10 08:37:02;;;;;;;16.35;5.00;;;;;;;17.87;53.45;95063.75;4191361;28;20512;-72
2023/10/10 08:41:28;;;;;;;;;;;;;;;17.91;53.24;95070.31;4193246;28;20107;-73
2023/10/10 08:43:31;;;;;;;11.10;4.43;;;;;;;17.91;53.32;95077.44;4195150;28;19931;-72
2023/10/10 08:45:49;;;;;;;14.88;5.50;;;;;;;17.74;53.72;95072.41;4190163;28;20044;-72
2023/10/10 08:48:02;;;;;;;11.25;4.97;;;;;;;17.85;53.64;95080.88;4186442;28;20400;-71
2023/10/10 08:50:06;;;;;;;14.88;5.55;;;;;;;17.84;53.39;95072.09;4183031;28;20546;-71
2023/10/10 08:52:09;;;;;;;11.82;5.30;;;;;;;17.93;53.34;95081.53;4190899;28;20052;-72
2023/10/10 08:54:15;;;;;;;11.68;5.30;;;;;;;17.70;53.76;95104.78;4193615;28;20056;-72
2023/10/10 08:56:18;;;;;;;10.88;5.13;;;;;;;17.64;54.29;95074.59;4178198;28;20507;-73
2023/10/10 08:58:22;;;;;;;13.60;4.95;;;;;;;17.81;54.17;95065.34;4210926;28;20055;-74
2023/10/10 09:00:27;;;;;;;13.45;4.63;;;;;;;17.97;53.75;95081.97;4191946;28;20135;-72
2023/10/10 09:02:33;;;;;;;13.07;5.72;;;;;;;17.91;53.63;95072.94;4186181;28;20076;-73
2023/10/10 09:04:35;;;;;;;18.45;5.93;;;;;;;18.00;53.68;95071.81;4194755;28;20053;-71
2023/10/10 09:07:08;;;;;;;17.08;5.85;;;;;;;18.14;53.22;95082.47;4211325;28;20095;-73
2023/10/10 09:09:02;;;;;;;15.70;5.00;;;;;;;18.24;52.89;95074.97;4205742;28;20487;-73
2023/10/10 09:11:04;;;;;;;15.50;4.75;;;;;;;18.26;52.88;95078.22;4212130;28;20106;-73
2023/10/10 09:13:09;;;;;;;11.80;4.75;;;;;;;18.08;53.12;95077.94;4210203;28;20078;-73
2023/10/10 09:15:16;;;;;;;11.27;4.30;;;;;;;18.04;53.08;95076.69;4210557;28;20117;-74
2023/10/10 09:17:32;;;;;;;12.10;5.38;;;;;;;18.11;53.16;95077.53;4187201;28;20091;-72
2023/10/10 09:19:46;;;;;;;9.15;4.45;;;;;;;18.11;53.09;95070.44;4175359;28;20060;-73
2023/10/10 09:21:51;;;;;;;10.15;4.70;;;;;;;18.25;52.86;95067.84;4197114;28;20051;-73
2023/10/10 09:24:25;;;;;;;11.45;4.82;;;;;;;18.21;52.80;95078.00;4211785;28;20433;-73
2023/10/10 09:28:43;;;;;;;10.73;5.30;;;;;;;18.39;52.47;95073.00;4190657;28;20131;-75
2023/10/10 09:31:14;;;;;;;14.52;5.82;;;;;;;18.26;52.84;95074.75;4210556;28;20524;-75
2023/10/10 09:33:23;;;;;;;11.25;4.35;;;;;;;18.40;52.51;95079.13;4203369;28;20242;-74
2023/10/10 09:35:28;;;;;;;9.18;4.30;;;;;;;18.23;52.59;95086.59;4192681;28;20513;-73
2023/10/10 09:37:35;;;;;;;6.53;3.20;;;;;;;18.27;52.59;95087.84;4209267;28;20167;-75
2023/10/10 09:39:41;;;;;;;10.95;3.67;;;;;;;18.45;52.44;95078.50;4211317;28;20125;-76
2023/10/10 09:46:53;;;;;;;12.80;4.68;;;;;;;18.36;52.31;95078.69;4188412;28;20048;-72
2023/10/10 09:51:15;;;;;;;8.88;3.60;;;;;;;18.78;51.93;95074.16;4181971;28;20601;-73
2023/10/10 09:53:20;;;;;;;10.40;3.60;;;;;;;18.69;51.57;95072.69;4210233;28;20488;-72
2023/10/10 09:57:31;;;;;;;7.95;3.42;;;;;;;18.90;51.30;95065.59;4184533;28;20080;-72
2023/10/10 09:59:37;;;;;;;10.45;4.55;;;;;;;18.87;51.35;95069.50;4201665;28;20053;-74
2023/10/10 10:01:46;;;;;;;16.55;3.45;;;;;;;18.97;51.02;95056.66;4208192;28;20060;-74
2023/10/10 10:03:55;;;;;;;13.50;4.80;;;;;;;19.11;50.82;95049.50;4203783;28;20090;-72
2023/10/10 10:09:09;;;;;;;7.20;3.17;;;;;;;19.13;50.60;95059.94;4210221;28;20052;-76
2023/10/10 10:11:17;;;;;;;8.52;2.90;;;;;;;19.14;50.67;95054.38;4201119;28;20424;-74
2023/10/10 10:13:48;;;;;;;10.00;3.08;;;;;;;19.23;50.62;95044.41;4191717;28;20056;-73
2023/10/10 10:16:34;;;;;;;9.88;3.47;;;;;;;19.31;50.31;95040.72;4199572;28;20080;-74
2023/10/10 10:19:11;;;;;;;7.15;3.10;;;;;;;19.02;50.64;95054.19;4199816;28;20518;-74
2023/10/10 10:23:26;;;;;;;10.50;3.42;;;;;;;19.18;50.75;95042.34;4210042;28;20109;-74
2023/10/10 10:25:31;;;;;;;7.60;3.47;;;;;;;19.29;50.47;95030.28;4185691;28;20048;-74
2023/10/10 10:27:43;;;;;;;7.55;3.30;;;;;;;19.42;50.07;95034.78;4199977;28;20492;-74
2023/10/10 10:32:24;;;;;;;8.18;3.42;;;;;;;19.46;50.00;95028.03;4210190;28;20610;-74
2023/10/10 10:36:42;;;;;;;10.02;3.58;;;;;;;19.36;50.01;95028.47;4210050;28;20109;-74
2023/10/10 10:39:19;;;;;;;14.80;3.63;;;;;;;19.39;50.10;95024.56;4192529;28;20882;-72
2023/10/10 10:41:17;;;;;;;5.65;3.00;;;;;;;19.19;50.40;95025.41;4201343;28;20131;-72
2023/10/10 10:43:24;;;;;;;9.68;3.03;;;;;;;19.21;50.14;95033.16;4200444;28;20048;-73
2023/10/10 10:45:36;;;;;;;6.60;3.35;;;;;;;19.05;50.35;95028.25;4198624;28;20050;-73
2023/10/10 10:47:38;;;;;;;12.65;3.25;;;;;;;18.98;50.57;95021.09;4185090;28;20052;-72
2023/10/10 10:49:41;;;;;;;14.85;3.28;;;;;;;19.05;50.47;95023.75;4210426;28;20411;-72
2023/10/10 10:51:48;;;;;;;17.05;3.92;;;;;;;18.89;50.71;95032.13;4205855;28;20064;-72
2023/10/10 10:54:02;;;;;;;6.63;3.17;;;;;;;18.79;51.02;95028.00;4209373;28;20104;-73
2023/10/10 10:58:20;;;;;;;9.65;2.97;;;;;;;18.75;50.91;95016.13;4208954;28;20138;-74
2023/10/10 11:00:56;;;;;;;5.88;2.55;;;;;;;18.82;50.79;95021.47;4210053;28;20044;-75
2023/10/10 11:02:59;;;;;;;13.35;3.38;;;;;;;18.92;50.60;95021.09;4193188;28;20045;-73
2023/10/10 11:05:07;;;;;;;10.68;3.08;;;;;;;19.03;50.28;95013.31;4210222;28;20056;-73
2023/10/10 11:07:15;;;;;;;7.93;3.00;;;;;;;19.03;49.88;95017.81;4193654;28;20393;-75
2023/10/10 11:09:28;;;;;;;9.73;2.88;;;;;;;18.92;50.06;95013.13;4204750;28;20127;-75
2023/10/10 11:13:34;;;;;;;12.68;3.72;;;;;;;18.90;50.22;95012.50;4209391;28;20133;-76
2023/10/10 11:15:38;;;;;;;7.43;2.80;;;;;;;18.96;50.06;95017.03;4201758;28;20044;-74
2023/10/10 11:17:50;;;;;;;7.57;3.20;;;;;;;18.96;49.72;95017.81;4190167;28;20056;-72
2023/10/10 11:19:55;;;;;;;8.88;2.90;;;;;;;18.90;49.93;95020.47;4191281;28;20068;-73
2023/10/10 11:22:02;;;;;;;6.15;2.90;;;;;;;19.00;49.99;95018.25;4175897;28;20048;-71
2023/10/10 11:24:05;;;;;;;10.27;3.17;;;;;;;19.06;49.71;95016.59;4191293;28;20135;-73
2023/10/10 11:26:13;;;;;;;9.38;3.42;;;;;;;19.10;49.63;95013.34;4188962;28;20124;-73
2023/10/10 11:28:21;;;;;;;10.40;4.28;;;;;;;19.14;49.35;95006.59;4200820;28;20039;-73
2023/10/10 11:30:25;;;;;;;10.32;3.45;;;;;;;19.24;49.10;95014.16;4189682;28;20058;-73
2023/10/10 11:32:36;;;;;;;9.38;3.70;;;;;;;19.22;49.25;95017.00;4210624;28;20055;-72
2023/10/10 11:34:44;;;;;;;13.48;4.30;;;;;;;19.11;49.25;95012.31;4193518;28;20148;-73
2023/10/10 11:36:51;;;;;;;10.38;4.57;;;;;;;19.26;49.12;95006.81;4209640;28;20047;-72
2023/10/10 11:39:09;;;;;;;11.98;3.47;;;;;;;19.23;48.90;95012.53;4191277;28;20130;-73
2023/10/10 11:41:28;;;;;;;12.93;3.88;;;;;;;19.20;49.14;95012.94;4209836;28;20131;-76
2023/10/10 11:43:37;;;;;;;11.75;3.72;;;;;;;19.17;49.22;95011.50;4205008;28;20056;-73
2023/10/10 11:45:39;;;;;;;14.93;3.50;;;;;;;19.13;49.22;95012.13;4208521;28;20506;-74
2023/10/10 11:47:44;;;;;;;10.10;3.63;;;;;;;19.15;49.33;95013.56;4189463;28;20111;-71
2023/10/10 11:50:00;;;;;;;16.35;3.95;;;;;;;19.16;49.44;95017.03;4202174;28;20052;-76
2023/10/10 11:52:03;;;;;;;13.93;3.85;;;;;;;19.15;49.73;95008.25;4202894;28;20135;-73
2023/10/10 11:54:06;;;;;;;;;;;;;;;19.18;49.41;95007.81;4203526;28;20046;-73
2023/10/10 11:56:13;;;;;;;11.70;4.28;;;;;;;19.16;49.48;95007.22;4208975;28;19926;-70
2023/10/10 11:58:19;;;;;;;13.65;4.55;;;;;;;19.20;49.57;95011.09;4208508;28;20090;-73
2023/10/10 12:00:30;;;;;;;15.50;4.60;;;;;;;19.13;49.62;95010.28;4203449;28;20105;-77
2023/10/10 12:02:39;;;;;;;10.60;3.72;;;;;;;19.13;49.45;95007.63;4205806;28;20056;-73
2023/10/10 12:04:46;;;;;;;11.15;4.00;;;;;;;19.16;49.47;95006.41;4186775;28;20074;-74
2023/10/10 12:06:48;;;;;;;10.52;3.80;;;;;;;19.22;49.45;95003.72;4208547;28;20056;-72
2023/10/10 12:08:50;;;;;;;11.45;3.65;;;;;;;19.19;49.15;95006.00;4198433;28;20056;-73
2023/10/10 12:11:06;;;;;;;11.70;4.40;;;;;;;19.14;49.07;94992.50;4208329;28;20085;-73
2023/10/10 12:13:25;;;;;;;11.00;3.63;;;;;;;19.12;49.02;94997.19;4207001;28;20501;-74
2023/10/10 12:15:27;;;;;;;12.77;3.83;;;;;;;19.17;49.06;95000.06;4197935;28;20124;-72
2023/10/10 12:17:29;;;;;;;36.88;12.15;;;;;;;19.14;48.89;95003.94;4204934;28;20048;-73
2023/10/10 12:19:36;;;;;;;16.92;5.90;;;;;;;19.16;49.11;95006.41;4212703;28;20389;-72
2023/10/10 12:21:40;;;;;;;19.92;4.90;;;;;;;19.23;48.97;94997.41;4197418;28;20044;-75
2023/10/10 12:23:42;;;;;;;18.40;6.70;;;;;;;19.25;48.83;95005.16;4211445;28;20040;-72
2023/10/10 12:25:45;;;;;;;17.80;5.15;;;;;;;19.33;48.72;95006.78;4210309;28;20334;-73
2023/10/10 12:27:47;;;;;;;23.67;7.25;;;;;;;18.90;49.79;95007.22;4211674;28;20059;-74
2023/10/10 12:29:49;;;;;;;13.40;4.35;;;;;;;18.53;50.15;95004.88;4207912;28;20477;-73
2023/10/10 12:31:57;;;;;;;14.30;4.55;;;;;;;18.46;50.43;95009.34;4194028;28;20059;-73
2023/10/10 12:34:00;;;;;;;9.85;4.40;;;;;;;18.44;50.30;95011.38;4192032;28;20091;-73
2023/10/10 12:36:09;;;;;;;14.37;4.57;;;;;;;18.42;50.09;95016.06;4209319;28;20047;-73
2023/10/10 12:38:15;;;;;;;13.40;4.25;;;;;;;18.50;49.94;95017.72;4206495;28;20048;-74
2023/10/10 12:40:17;;;;;;;16.20;5.40;;;;;;;18.58;49.97;95010.41;4209152;28;20052;-72
2023/10/10 12:42:20;;;;;;;16.98;4.32;;;;;;;18.67;49.73;95005.72;4192766;28;20052;-71
2023/10/10 12:44:23;;;;;;;11.45;3.70;;;;;;;18.54;50.03;95011.81;4193493;28;20465;-75